Time;durP1;ratioP1;P1;durP2;ratioP2;P2;SDS_P1;SDS_P2;PMS_P1;PMS_P2;Temp;Humidity;BMP_temperature;BMP_pressure;BME280_temperature;BME280_humidity;BME280_pressure;Samples;Min_cycle;Max_cycle;Signal;HPM_P1;HPM_P2
2021/09/09 00:02:04;;;;;;;16.03;14.33;;;;;;;16.06;73.08;99961.63;5157145;27;20042;-67
2021/09/09 00:04:32;;;;;;;19.10;15.65;;;;;;;16.01;72.67;99954.28;5141988;27;20489;-67
2021/09/09 00:06:59;;;;;;;18.27;15.63;;;;;;;15.99;72.73;99951.03;5136088;27;20058;-67
2021/09/09 00:09:27;;;;;;;16.58;13.88;;;;;;;15.94;73.12;99954.13;5135826;27;20051;-67
2021/09/09 00:11:54;;;;;;;16.10;13.85;;;;;;;15.94;73.02;99948.50;5136008;27;20051;-67
2021/09/09 00:14:22;;;;;;;16.52;14.18;;;;;;;15.86;73.20;99955.13;5121095;27;20070;-67
2021/09/09 00:16:50;;;;;;;16.73;14.93;;;;;;;15.83;73.32;99946.25;5121583;27;20055;-67
2021/09/09 00:19:18;;;;;;;14.85;13.25;;;;;;;15.87;73.37;99946.31;5135821;27;20493;-67
2021/09/09 00:21:46;;;;;;;15.25;13.05;;;;;;;15.87;72.84;99937.91;5135492;27;20506;-67
2021/09/09 00:24:14;;;;;;;17.45;14.18;;;;;;;15.85;72.69;99940.25;5143921;27;20062;-67
2021/09/09 00:26:43;;;;;;;17.15;13.30;;;;;;;15.79;72.83;99942.53;5143479;27;20051;-67
2021/09/09 00:29:11;;;;;;;17.83;13.77;;;;;;;15.71;72.99;99934.28;5135735;27;20054;-67
2021/09/09 00:31:38;;;;;;;17.13;13.30;;;;;;;15.69;72.79;99923.41;5135507;27;20479;-67
2021/09/09 00:34:07;;;;;;;15.82;13.30;;;;;;;15.70;72.97;99925.00;5136029;27;20065;-67
2021/09/09 00:36:34;;;;;;;14.63;12.93;;;;;;;15.72;72.67;99922.69;5135920;27;20063;-67
2021/09/09 00:39:02;;;;;;;15.60;12.55;;;;;;;15.68;72.66;99916.13;5135367;27;20062;-67
2021/09/09 00:41:30;;;;;;;15.40;13.27;;;;;;;15.65;72.71;99913.25;5136420;27;20502;-67
2021/09/09 00:43:58;;;;;;;15.07;13.43;;;;;;;15.63;72.49;99916.41;5135754;27;20058;-68
2021/09/09 00:46:25;;;;;;;17.25;13.10;;;;;;;15.55;72.53;99909.00;5135386;27;20055;-67
2021/09/09 00:48:53;;;;;;;16.30;14.20;;;;;;;15.55;72.45;99906.19;5135737;27;20406;-67
2021/09/09 00:51:21;;;;;;;15.55;13.70;;;;;;;15.50;72.57;99915.69;5135383;27;20047;-67
2021/09/09 00:53:49;;;;;;;17.85;14.70;;;;;;;15.46;72.47;99909.16;5135929;27;20054;-67
2021/09/09 00:56:19;;;;;;;16.55;14.05;;;;;;;15.42;72.71;99908.25;5148873;27;20051;-67
2021/09/09 00:58:48;;;;;;;16.23;14.38;;;;;;;15.43;73.08;99910.72;5156600;27;20403;-67
2021/09/09 01:01:15;;;;;;;16.83;14.18;;;;;;;15.42;73.25;99903.47;5157115;27;20046;-67
2021/09/09 01:03:43;;;;;;;16.48;13.65;;;;;;;15.45;73.03;99898.31;5156373;27;20050;-67
2021/09/09 01:06:11;;;;;;;17.13;14.60;;;;;;;15.43;73.05;99895.84;5155894;27;20487;-67
2021/09/09 01:08:39;;;;;;;15.80;14.02;;;;;;;15.40;73.10;99894.59;5155617;27;20058;-67
2021/09/09 01:11:08;;;;;;;17.35;14.95;;;;;;;15.35;73.33;99894.88;5151951;27;20051;-67
2021/09/09 01:13:35;;;;;;;16.52;14.35;;;;;;;15.32;73.22;99900.38;5155488;27;20058;-67
2021/09/09 01:16:04;;;;;;;16.13;14.43;;;;;;;15.33;73.19;99899.19;5155969;27;20051;-67
2021/09/09 01:18:31;;;;;;;22.10;15.35;;;;;;;15.35;73.18;99885.59;5135448;27;20419;-67
2021/09/09 01:20:58;;;;;;;16.10;13.73;;;;;;;15.36;72.91;99888.06;5134927;27;20058;-67
2021/09/09 01:23:27;;;;;;;16.42;13.77;;;;;;;15.31;73.20;99887.53;5135920;27;20467;-67
2021/09/09 01:25:55;;;;;;;18.63;14.48;;;;;;;15.24;73.47;99876.91;5147310;27;20062;-67
2021/09/09 01:28:23;;;;;;;17.43;15.53;;;;;;;15.20;73.30;99884.41;5134939;27;20463;-67
2021/09/09 01:30:50;;;;;;;20.33;15.45;;;;;;;15.19;73.45;99871.59;5134612;27;20043;-67
2021/09/09 01:33:17;;;;;;;17.80;15.90;;;;;;;15.19;73.76;99880.00;5132972;27;20406;-67
2021/09/09 01:35:45;;;;;;;16.98;15.13;;;;;;;15.17;73.37;99874.75;5125532;27;20118;-67
2021/09/09 01:38:30;;;;;;;17.52;14.20;;;;;;;15.15;73.32;99871.47;5115406;27;20526;-67
2021/09/09 01:40:59;;;;;;;17.33;14.05;;;;;;;15.17;73.28;99868.31;5134512;27;20047;-67
2021/09/09 01:43:26;;;;;;;18.85;14.75;;;;;;;15.15;73.52;99874.28;5134451;27;20055;-67
2021/09/09 01:45:53;;;;;;;15.30;13.73;;;;;;;15.12;73.39;99861.00;5134265;27;20062;-67
2021/09/09 01:48:21;;;;;;;16.00;13.73;;;;;;;15.09;73.41;99867.31;5134675;27;20074;-67
2021/09/09 01:50:48;;;;;;;17.85;15.27;;;;;;;15.06;73.44;99870.84;5134867;27;20059;-67
2021/09/09 01:53:18;;;;;;;17.20;14.88;;;;;;;15.02;73.82;99867.94;5152783;27;20054;-67
2021/09/09 01:55:45;;;;;;;16.98;13.88;;;;;;;15.04;73.25;99858.38;5154761;27;20046;-67
2021/09/09 01:58:14;;;;;;;15.52;13.93;;;;;;;15.00;73.23;99863.88;5154478;27;20077;-67
2021/09/09 02:00:42;;;;;;;19.63;15.50;;;;;;;14.97;73.13;99868.22;5154886;27;20047;-66
2021/09/09 02:03:09;;;;;;;18.13;15.52;;;;;;;14.97;73.66;99856.16;5155031;27;20050;-66
2021/09/09 02:05:37;;;;;;;19.38;15.02;;;;;;;14.96;73.65;99858.16;5154824;27;20050;-66
2021/09/09 02:08:04;;;;;;;19.92;16.23;;;;;;;14.93;73.41;99839.25;5135906;27;20054;-66
2021/09/09 02:10:32;;;;;;;19.42;15.63;;;;;;;14.92;73.69;99850.81;5133899;27;20077;-66
2021/09/09 02:12:59;;;;;;;20.42;16.25;;;;;;;14.89;74.14;99846.75;5133934;27;20043;-66
2021/09/09 02:15:36;;;;;;;19.63;16.13;;;;;;;14.85;73.73;99845.03;5142940;27;20043;-66
2021/09/09 02:18:04;;;;;;;17.55;15.38;;;;;;;14.78;73.92;99840.88;5158989;27;20042;-66
2021/09/09 02:20:32;;;;;;;18.45;14.80;;;;;;;14.82;74.00;99838.97;5159090;27;20057;-66
2021/09/09 02:23:02;;;;;;;19.08;15.05;;;;;;;14.81;73.83;99834.53;5159213;27;20051;-66
2021/09/09 02:25:30;;;;;;;17.33;14.60;;;;;;;14.81;73.91;99839.31;5158774;27;20044;-66
2021/09/09 02:27:58;;;;;;;18.33;14.73;;;;;;;14.79;73.69;99836.88;5158141;27;20061;-66
2021/09/09 02:30:26;;;;;;;18.25;16.02;;;;;;;14.76;73.58;99843.22;5159050;27;20059;-66
2021/09/09 02:32:55;;;;;;;17.83;15.32;;;;;;;14.78;74.02;99835.25;5159502;27;20037;-66
2021/09/09 02:35:23;;;;;;;17.40;15.40;;;;;;;14.73;74.21;99848.72;5159377;27;20110;-66
2021/09/09 02:37:55;;;;;;;18.23;15.57;;;;;;;14.76;73.95;99836.75;5158917;27;20041;-66
2021/09/09 02:40:23;;;;;;;19.38;15.27;;;;;;;14.78;73.59;99831.63;5159371;27;20045;-66
2021/09/09 02:42:50;;;;;;;17.20;15.25;;;;;;;14.77;73.71;99832.81;5158641;27;20039;-66
2021/09/09 02:45:17;;;;;;;18.50;14.75;;;;;;;14.71;73.45;99835.03;5158581;27;20061;-67
2021/09/09 02:47:46;;;;;;;18.23;14.88;;;;;;;14.69;73.51;99839.38;5158756;27;20051;-67
2021/09/09 02:50:15;;;;;;;18.13;15.63;;;;;;;14.68;73.68;99835.78;5158461;28;20039;-66
2021/09/09 02:52:42;;;;;;;;;;;;;;;14.59;74.13;99830.31;5159225;27;20043;-67
2021/09/09 02:55:11;;;;;;;16.90;14.70;;;;;;;14.63;73.65;99824.00;5158529;27;19910;-66
2021/09/09 02:57:39;;;;;;;19.83;16.52;;;;;;;14.61;73.33;99821.53;5157797;27;20038;-66
2021/09/09 03:00:08;;;;;;;19.13;15.85;;;;;;;14.62;73.83;99820.38;5158536;28;20061;-66
2021/09/09 03:02:35;;;;;;;19.63;15.13;;;;;;;14.61;73.98;99818.72;5158619;27;20037;-67
2021/09/09 03:05:03;;;;;;;16.98;15.20;;;;;;;14.60;73.66;99814.31;5158820;28;20059;-66
2021/09/09 03:07:34;;;;;;;18.80;15.88;;;;;;;14.60;73.91;99819.91;5158316;27;20047;-66
2021/09/09 03:10:02;;;;;;;21.35;16.17;;;;;;;14.60;74.19;99820.72;5179217;27;20831;-66
2021/09/09 03:12:29;;;;;;;17.80;15.90;;;;;;;14.61;74.41;99819.56;5178873;27;20053;-66
2021/09/09 03:14:56;;;;;;;18.50;16.33;;;;;;;14.59;74.22;99816.31;5178812;27;20046;-67
2021/09/09 03:17:23;;;;;;;18.52;16.52;;;;;;;14.60;74.46;99809.53;5177948;27;20061;-66
2021/09/09 03:19:51;;;;;;;17.50;15.40;;;;;;;14.63;73.88;99804.38;5176135;27;20062;-67
2021/09/09 03:22:18;;;;;;;20.00;16.10;;;;;;;14.65;73.38;99793.63;5176019;27;20053;-66
2021/09/09 03:24:47;;;;;;;17.05;14.68;;;;;;;14.65;73.66;99802.84;5138275;28;20065;-67
2021/09/09 03:27:15;;;;;;;17.93;15.53;;;;;;;14.60;73.58;99809.53;5137354;28;20056;-67
2021/09/09 03:29:42;;;;;;;22.95;19.15;;;;;;;14.53;73.43;99800.91;5138047;28;20042;-67
2021/09/09 03:32:10;;;;;;;22.05;18.13;;;;;;;14.52;74.26;99802.06;5138038;28;20052;-66
2021/09/09 03:34:37;;;;;;;19.80;16.45;;;;;;;14.52;73.95;99788.03;5137581;28;20042;-67
2021/09/09 03:37:05;;;;;;;20.20;16.45;;;;;;;14.52;73.60;99792.84;5137724;28;20069;-67
2021/09/09 03:39:32;;;;;;;19.17;16.38;;;;;;;14.46;73.83;99795.06;5137184;28;20066;-67
2021/09/09 03:42:01;;;;;;;19.98;16.83;;;;;;;14.48;74.15;99787.13;5137797;28;20050;-67
2021/09/09 03:44:29;;;;;;;19.77;16.83;;;;;;;14.49;74.32;99788.78;5138258;28;20407;-67
2021/09/09 03:46:56;;;;;;;19.73;16.88;;;;;;;14.49;74.62;99787.94;5137437;28;20054;-67
2021/09/09 03:49:23;;;;;;;24.77;18.38;;;;;;;14.50;74.20;99790.38;5137067;27;20051;-67
2021/09/09 03:51:51;;;;;;;19.98;16.30;;;;;;;14.51;74.30;99800.44;5136678;28;20046;-67
2021/09/09 03:54:19;;;;;;;21.90;17.08;;;;;;;14.50;74.17;99796.00;5152251;27;20057;-67
2021/09/09 03:56:46;;;;;;;20.23;16.70;;;;;;;14.50;74.00;99790.38;5165881;27;20057;-67
2021/09/09 03:59:15;;;;;;;20.02;16.92;;;;;;;14.49;73.90;99790.72;5178056;27;20043;-67
2021/09/09 04:01:42;;;;;;;19.10;15.90;;;;;;;14.48;74.02;99784.31;5176702;27;20046;-67
2021/09/09 04:04:12;;;;;;;19.52;16.10;;;;;;;14.48;74.07;99780.72;5176363;27;20470;-67
2021/09/09 04:06:40;;;;;;;18.35;16.35;;;;;;;14.44;73.83;99791.81;5177232;27;20057;-67
2021/09/09 04:09:07;;;;;;;19.70;16.65;;;;;;;14.40;74.20;99793.69;5178026;27;20057;-66
2021/09/09 04:11:36;;;;;;;18.65;16.20;;;;;;;14.38;74.15;99798.84;5161941;27;20051;-67
2021/09/09 04:14:03;;;;;;;20.77;16.58;;;;;;;14.34;73.78;99797.91;5153935;27;20051;-67
2021/09/09 04:16:32;;;;;;;20.15;17.05;;;;;;;14.30;74.51;99795.03;5154834;27;20053;-67
2021/09/09 04:19:00;;;;;;;19.58;16.83;;;;;;;14.30;74.51;99797.84;5153937;27;20051;-66
2021/09/09 04:21:27;;;;;;;20.95;17.30;;;;;;;14.29;74.53;99801.00;5154666;27;20051;-67
2021/09/09 04:23:55;;;;;;;20.02;16.55;;;;;;;14.29;74.02;99798.19;5135217;27;20054;-66
2021/09/09 04:26:22;;;;;;;20.77;16.95;;;;;;;14.28;74.75;99802.16;5154539;27;20047;-67
2021/09/09 04:28:50;;;;;;;19.52;16.83;;;;;;;14.33;74.13;99796.31;5153008;27;20051;-67
2021/09/09 04:31:17;;;;;;;20.73;16.80;;;;;;;14.31;74.16;99793.03;5154124;27;20050;-67
2021/09/09 04:33:46;;;;;;;19.02;16.23;;;;;;;14.29;74.17;99792.59;5153466;27;20047;-67
2021/09/09 04:36:14;;;;;;;20.42;17.73;;;;;;;14.29;74.06;99795.38;5154085;27;20051;-66
2021/09/09 04:38:41;;;;;;;18.65;15.85;;;;;;;14.32;73.91;99794.66;5161183;27;20055;-67
2021/09/09 04:41:09;;;;;;;18.58;15.88;;;;;;;14.37;74.32;99788.81;5176058;27;20055;-67
2021/09/09 04:43:36;;;;;;;19.60;15.65;;;;;;;14.43;74.16;99793.00;5177874;27;20053;-66
2021/09/09 04:46:04;;;;;;;20.63;15.43;;;;;;;14.41;73.60;99784.13;5181101;27;20030;-67
2021/09/09 04:48:37;;;;;;;17.75;15.30;;;;;;;14.40;74.08;99788.94;5180643;27;20041;-66
2021/09/09 04:51:07;;;;;;;21.38;15.93;;;;;;;14.40;74.29;99783.31;5180943;27;20030;-67
2021/09/09 04:53:35;;;;;;;17.52;15.70;;;;;;;14.41;74.45;99776.53;5180649;27;20039;-66
2021/09/09 04:56:03;;;;;;;18.25;15.25;;;;;;;14.47;74.12;99782.72;5180492;27;20050;-67
2021/09/09 04:58:30;;;;;;;18.92;15.90;;;;;;;14.39;74.48;99778.06;5180905;27;20055;-67
2021/09/09 05:00:58;;;;;;;18.38;16.38;;;;;;;14.45;74.32;99787.84;5180590;27;20042;-67
2021/09/09 05:03:26;;;;;;;20.15;17.15;;;;;;;14.45;74.70;99784.22;5174778;27;20057;-66
2021/09/09 05:05:53;;;;;;;21.23;17.42;;;;;;;14.50;74.32;99783.97;5156979;27;20039;-66
2021/09/09 05:08:23;;;;;;;21.35;16.15;;;;;;;14.57;74.50;99789.78;5156759;27;20044;-66
2021/09/09 05:10:50;;;;;;;;;;;;;;;14.57;73.88;99790.63;5157116;27;20053;-66
2021/09/09 05:13:18;;;;;;;17.55;14.88;;;;;;;14.65;73.80;99796.41;5156612;27;19929;-66
2021/09/09 05:15:46;;;;;;;21.45;15.80;;;;;;;14.66;73.32;99784.84;5156462;27;20051;-66
2021/09/09 05:18:13;;;;;;;19.30;15.10;;;;;;;14.71;73.47;99786.56;5157013;27;20046;-66
2021/09/09 05:20:41;;;;;;;19.52;16.13;;;;;;;14.77;73.28;99776.72;5159455;27;20055;-67
2021/09/09 05:23:09;;;;;;;18.67;16.00;;;;;;;14.81;73.45;99783.25;5158905;27;20059;-66
2021/09/09 05:25:38;;;;;;;20.30;15.85;;;;;;;14.80;73.20;99776.84;5159415;27;20048;-66
2021/09/09 05:28:06;;;;;;;17.45;15.55;;;;;;;14.85;73.52;99774.94;5158627;27;20054;-67
2021/09/09 05:30:33;;;;;;;19.63;16.33;;;;;;;14.91;73.10;99779.91;5159096;27;20051;-66
2021/09/09 05:33:00;;;;;;;19.73;15.75;;;;;;;14.99;73.18;99778.94;5158489;27;20047;-66
2021/09/09 05:35:31;;;;;;;19.15;16.48;;;;;;;15.05;72.58;99775.84;5155044;27;20128;-67
2021/09/09 05:37:58;;;;;;;17.65;15.70;;;;;;;15.09;72.45;99771.13;5159816;27;20051;-66
2021/09/09 05:40:28;;;;;;;18.98;15.73;;;;;;;15.13;72.39;99772.03;5160381;27;20035;-66
2021/09/09 05:42:57;;;;;;;18.65;15.52;;;;;;;15.19;72.53;99767.78;5159441;27;20045;-67
2021/09/09 05:45:25;;;;;;;18.23;15.18;;;;;;;15.22;72.79;99775.47;5156133;27;20048;-66
2021/09/09 05:47:52;;;;;;;18.65;15.52;;;;;;;15.28;72.32;99774.00;5159422;27;20059;-66
2021/09/09 05:50:20;;;;;;;19.42;16.45;;;;;;;15.32;72.43;99769.31;5159592;27;20051;-67
2021/09/09 05:52:48;;;;;;;18.13;14.02;;;;;;;15.41;71.87;99781.16;5158959;27;20031;-66
2021/09/09 05:55:16;;;;;;;17.90;14.45;;;;;;;15.51;71.58;99776.97;5159071;27;20031;-66
2021/09/09 05:57:43;;;;;;;16.50;13.85;;;;;;;15.58;71.44;99765.94;5159722;27;20063;-65
2021/09/09 06:00:12;;;;;;;17.00;14.02;;;;;;;15.62;71.05;99760.38;5159642;27;20049;-67
2021/09/09 06:02:44;;;;;;;15.13;13.52;;;;;;;15.75;70.99;99758.31;5159547;27;20043;-65
2021/09/09 06:05:13;;;;;;;15.80;13.95;;;;;;;15.85;70.61;99756.91;5077916;22;20056;-78
2021/09/09 06:07:41;;;;;;;16.63;13.75;;;;;;;15.92;70.33;99749.44;5055805;28;20056;-78
2021/09/09 06:10:10;;;;;;;17.33;14.98;;;;;;;16.02;70.27;99750.84;5055823;28;20064;-78
2021/09/09 06:12:37;;;;;;;17.23;14.27;;;;;;;16.12;70.53;99761.50;5055749;28;20049;-78
2021/09/09 06:15:06;;;;;;;18.27;15.27;;;;;;;16.23;70.70;99748.50;5056029;28;20049;-78
2021/09/09 06:17:35;;;;;;;22.10;18.00;;;;;;;16.34;70.55;99750.72;5055304;28;20059;-78
2021/09/09 06:20:03;;;;;;;18.52;15.13;;;;;;;16.42;70.37;99752.44;5055646;28;20053;-79
2021/09/09 06:22:31;;;;;;;18.38;15.93;;;;;;;16.48;70.70;99750.16;5040127;28;20048;-78
2021/09/09 06:24:58;;;;;;;17.75;15.32;;;;;;;16.63;70.01;99746.44;5052911;28;20048;-78
2021/09/09 06:27:26;;;;;;;17.08;14.57;;;;;;;16.76;69.69;99745.09;5059896;28;20063;-77
2021/09/09 06:29:54;;;;;;;17.67;14.27;;;;;;;16.88;68.57;99746.91;5058739;28;20052;-76
2021/09/09 06:32:24;;;;;;;16.52;13.98;;;;;;;16.98;67.88;99740.66;5059246;28;20056;-77
2021/09/09 06:34:53;;;;;;;16.55;14.82;;;;;;;17.08;67.41;99755.31;5052525;28;20053;-76
2021/09/09 06:37:23;;;;;;;15.85;13.85;;;;;;;17.17;67.36;99753.84;5049804;28;20049;-76
2021/09/09 06:39:50;;;;;;;19.83;14.60;;;;;;;17.23;67.17;99752.34;5050919;28;20416;-76
2021/09/09 06:42:17;;;;;;;16.73;14.30;;;;;;;17.34;67.17;99760.94;5062550;28;20056;-76
2021/09/09 06:44:46;;;;;;;18.30;15.05;;;;;;;17.42;66.92;99759.88;5050684;28;20048;-76
2021/09/09 06:47:13;;;;;;;16.35;13.77;;;;;;;17.50;66.86;99757.97;5050014;28;20433;-75
2021/09/09 06:49:40;;;;;;;16.33;13.95;;;;;;;17.62;67.00;99745.69;5052606;28;20052;-75
2021/09/09 06:52:09;;;;;;;17.05;14.40;;;;;;;17.78;66.89;99757.56;5053490;28;20053;-78
2021/09/09 06:54:36;;;;;;;16.70;14.10;;;;;;;17.90;65.97;99747.31;5057920;28;20056;-80
2021/09/09 06:57:06;;;;;;;16.55;14.75;;;;;;;18.06;65.62;99747.94;5059071;28;20056;-79
2021/09/09 06:59:33;;;;;;;;;;;;;;;18.15;65.20;99742.00;5067467;28;20049;-79
2021/09/09 07:02:01;;;;;;;15.98;14.02;;;;;;;18.30;65.50;99745.81;5042436;28;19921;-79
2021/09/09 07:04:29;;;;;;;15.77;13.48;;;;;;;18.46;65.07;99752.03;5073482;28;20052;-78
2021/09/09 07:06:56;;;;;;;15.27;13.68;;;;;;;18.63;64.73;99747.78;5080995;28;20059;-79
2021/09/09 07:09:25;;;;;;;15.13;13.15;;;;;;;18.86;63.68;99739.97;5080102;28;20063;-79
2021/09/09 07:11:52;;;;;;;13.98;12.40;;;;;;;19.45;62.29;99748.53;5081157;28;20053;-79
2021/09/09 07:14:20;;;;;;;16.35;12.95;;;;;;;20.44;59.37;99738.16;5080146;28;20055;-79
2021/09/09 07:16:48;;;;;;;12.95;11.40;;;;;;;21.53;56.13;99731.41;5079221;28;20052;-79
2021/09/09 07:19:15;;;;;;;15.43;11.15;;;;;;;22.64;52.96;99730.19;5080159;28;20052;-79
2021/09/09 07:21:43;;;;;;;12.00;10.73;;;;;;;23.67;50.71;99728.53;5094704;28;20051;-79
2021/09/09 07:24:11;;;;;;;12.63;10.05;;;;;;;24.84;47.58;99724.66;5067940;28;20051;-79
2021/09/09 07:26:39;;;;;;;11.75;10.55;;;;;;;25.81;45.54;99720.16;5079308;28;20052;-79
2021/09/09 07:29:07;;;;;;;11.90;10.60;;;;;;;26.90;42.83;99723.13;5080900;28;20045;-79
2021/09/09 07:31:34;;;;;;;12.55;10.55;;;;;;;27.96;41.23;99733.53;5082034;28;20049;-79
2021/09/09 07:34:03;;;;;;;16.70;10.80;;;;;;;28.90;38.29;99726.63;5081888;28;20056;-79
2021/09/09 07:36:31;;;;;;;11.38;10.18;;;;;;;29.80;36.83;99718.69;5084039;28;20056;-79
2021/09/09 07:38:58;;;;;;;11.75;10.55;;;;;;;30.31;35.33;99721.31;5080077;28;20047;-80
2021/09/09 07:41:26;;;;;;;11.18;10.07;;;;;;;31.28;33.67;99716.63;5083017;28;20068;-80
2021/09/09 07:43:54;;;;;;;10.77;9.63;;;;;;;32.04;32.15;99712.06;5083377;28;20049;-80
2021/09/09 07:46:22;;;;;;;11.43;10.32;;;;;;;32.69;31.36;99711.97;5082458;28;20048;-80
2021/09/09 07:48:50;;;;;;;12.37;9.90;;;;;;;33.29;29.68;99710.25;5085608;28;20064;-80
2021/09/09 07:51:18;;;;;;;10.73;8.93;;;;;;;33.90;27.12;99707.88;5083212;28;20485;-80
2021/09/09 07:53:46;;;;;;;10.32;9.23;;;;;;;34.43;26.64;99705.47;5082922;28;20044;-80
2021/09/09 07:56:14;;;;;;;10.57;9.47;;;;;;;34.99;25.14;99708.53;5083143;28;20055;-80
2021/09/09 07:58:48;;;;;;;9.75;8.85;;;;;;;35.47;24.41;99703.16;5083295;28;20053;-80
2021/09/09 08:01:19;;;;;;;11.02;9.07;;;;;;;35.90;25.02;99715.03;5080712;28;20055;-79
2021/09/09 08:03:47;;;;;;;9.98;8.98;;;;;;;36.33;24.06;99703.66;5081298;28;20048;-80
2021/09/09 08:06:15;;;;;;;12.32;9.13;;;;;;;36.82;23.54;99706.72;5076450;28;20409;-79
2021/09/09 08:08:43;;;;;;;;;;;;;;;36.97;22.50;99709.47;5079319;28;20056;-80
2021/09/09 08:11:11;;;;;;;10.23;8.95;;;;;;;37.43;22.64;99710.56;5082464;28;20304;-78
2021/09/09 08:13:40;;;;;;;9.02;8.23;;;;;;;38.10;22.10;99713.00;5074455;28;20059;-77
2021/09/09 08:16:08;;;;;;;9.18;8.27;;;;;;;38.83;21.58;99709.34;5077089;28;20044;-78
2021/09/09 08:18:36;;;;;;;9.80;8.90;;;;;;;39.09;21.27;99709.88;5077927;28;20057;-79
2021/09/09 08:21:04;;;;;;;10.13;9.10;;;;;;;39.82;20.44;99714.69;5081941;28;20049;-78
2021/09/09 08:23:32;;;;;;;9.80;8.80;;;;;;;40.41;20.06;99718.34;5096271;28;20063;-78
2021/09/09 08:26:00;;;;;;;11.65;8.80;;;;;;;41.13;19.72;99706.56;5077837;28;20044;-78
2021/09/09 08:28:27;;;;;;;9.50;8.50;;;;;;;41.74;18.52;99704.31;5072993;28;20060;-77
2021/09/09 08:30:55;;;;;;;9.85;8.90;;;;;;;42.52;17.98;99710.38;5074168;28;20045;-79
2021/09/09 08:33:22;;;;;;;9.57;8.68;;;;;;;42.85;18.11;99708.25;5062474;28;20116;-79
2021/09/09 08:35:51;;;;;;;9.98;8.52;;;;;;;43.27;17.59;99708.56;5078396;28;20052;-79
2021/09/09 08:38:19;;;;;;;9.05;8.13;;;;;;;44.02;17.05;99704.31;5076650;28;20049;-82
2021/09/09 08:40:51;;;;;;;8.93;8.02;;;;;;;44.55;16.54;99706.28;5084991;28;20068;-83
2021/09/09 08:43:19;;;;;;;8.85;8.15;;;;;;;44.81;16.36;99713.38;5063647;28;20049;-79
2021/09/09 08:45:47;;;;;;;8.82;7.93;;;;;;;45.40;15.63;99707.00;5064022;28;20071;-79
2021/09/09 08:48:17;;;;;;;7.70;6.90;;;;;;;45.63;16.15;99713.03;5080128;28;20049;-78
2021/09/09 08:50:44;;;;;;;8.65;7.72;;;;;;;45.93;15.93;99719.06;5084656;28;20757;-78
2021/09/09 08:53:16;;;;;;;10.05;8.85;;;;;;;46.33;15.71;99721.56;5070920;28;20048;-78
2021/09/09 08:55:44;;;;;;;9.65;8.85;;;;;;;46.68;15.08;99715.34;5084834;28;20056;-80
2021/09/09 08:58:14;;;;;;;10.70;8.95;;;;;;;46.97;14.94;99718.91;5084326;28;20048;-79
2021/09/09 09:01:07;;;;;;;8.77;7.90;;;;;;;47.24;13.52;99727.38;5100553;28;20393;-79
2021/09/09 09:06:57;;;;;;;9.07;8.23;;;;;;;47.95;13.73;99709.69;4733733;28;20059;-79
2021/09/09 09:09:28;;;;;;;9.25;8.38;;;;;;;48.01;13.33;99715.38;5043875;28;20057;-79
2021/09/09 09:11:56;;;;;;;9.80;7.22;;;;;;;48.47;12.96;99712.16;5053345;28;20060;-79
2021/09/09 09:14:29;;;;;;;8.18;7.38;;;;;;;48.67;12.67;99711.06;5058568;28;20053;-79
2021/09/09 09:17:02;;;;;;;8.30;7.50;;;;;;;48.67;13.14;99719.91;5059780;28;20052;-79
2021/09/09 09:19:32;;;;;;;8.15;6.70;;;;;;;49.12;12.10;99715.03;5057158;28;20056;-78
2021/09/09 09:22:03;;;;;;;8.52;7.55;;;;;;;49.08;12.73;99714.69;5055903;28;20482;-79
2021/09/09 09:24:44;;;;;;;7.60;6.90;;;;;;;49.50;12.74;99713.88;5051777;28;20390;-79
2021/09/09 09:27:14;;;;;;;6.80;6.15;;;;;;;49.34;12.17;99721.31;5053269;28;20057;-79
2021/09/09 09:29:58;;;;;;;6.43;5.80;;;;;;;49.12;11.30;99715.03;5058029;28;20057;-79
2021/09/09 09:32:25;;;;;;;6.22;5.72;;;;;;;47.35;12.47;99715.94;5060037;28;20063;-79
2021/09/09 09:35:09;;;;;;;6.70;6.00;;;;;;;46.69;13.05;99722.84;5060483;28;20059;-79
2021/09/09 09:37:37;;;;;;;6.35;5.85;;;;;;;46.96;12.97;99718.13;5061191;28;20053;-79
2021/09/09 09:40:09;;;;;;;;;;;;;;;44.66;15.22;99711.88;5062898;28;20076;-79
2021/09/09 09:42:38;;;;;;;6.25;5.65;;;;;;;46.50;14.48;99715.16;5055261;28;20297;-78
2021/09/09 09:45:12;;;;;;;6.10;5.50;;;;;;;47.08;13.63;99723.63;5055927;28;20045;-79
2021/09/09 09:47:40;;;;;;;7.70;6.13;;;;;;;47.80;12.57;99721.53;5060573;28;20056;-79
2021/09/09 09:50:17;;;;;;;7.20;6.50;;;;;;;46.61;13.59;99716.91;5058554;28;20053;-79
2021/09/09 09:52:45;;;;;;;6.80;6.07;;;;;;;47.12;13.58;99709.28;5057110;28;20068;-81
2021/09/09 09:55:14;;;;;;;6.55;5.95;;;;;;;45.64;14.48;99711.69;5059014;28;20374;-80
2021/09/09 09:57:52;;;;;;;7.93;6.40;;;;;;;45.68;14.17;99718.75;5055062;28;20049;-79
2021/09/09 10:00:20;;;;;;;6.90;5.97;;;;;;;46.15;14.64;99719.75;5041769;28;20049;-79
2021/09/09 10:02:48;;;;;;;6.82;6.22;;;;;;;46.24;13.91;99707.41;5057835;28;20049;-79
2021/09/09 10:05:16;;;;;;;6.72;6.05;;;;;;;45.58;14.88;99708.88;5057567;28;20409;-79
2021/09/09 10:07:46;;;;;;;6.20;5.70;;;;;;;46.35;13.76;99712.16;5065294;28;20057;-79
2021/09/09 10:10:15;;;;;;;6.60;5.90;;;;;;;46.81;13.66;99705.56;5070351;28;20048;-79
2021/09/09 10:12:44;;;;;;;6.47;5.70;;;;;;;47.22;14.36;99709.50;5066595;28;20496;-79
2021/09/09 10:15:12;;;;;;;7.57;6.28;;;;;;;47.20;13.21;99707.13;5071419;28;20056;-79
2021/09/09 10:17:41;;;;;;;7.28;5.88;;;;;;;46.90;13.67;99708.72;5075474;28;20051;-80
2021/09/09 10:20:31;;;;;;;6.60;5.93;;;;;;;47.52;12.95;99705.66;5064792;28;20509;-79
2021/09/09 10:23:07;;;;;;;6.68;5.18;;;;;;;48.02;12.84;99696.28;5075641;28;20075;-79
2021/09/09 10:25:44;;;;;;;6.60;6.00;;;;;;;47.58;13.25;99692.28;5075245;28;20489;-79
2021/09/09 10:28:41;;;;;;;5.18;4.78;;;;;;;48.21;12.60;99705.41;5071543;28;20482;-79
2021/09/09 10:31:10;;;;;;;6.00;5.43;;;;;;;46.62;13.48;99700.03;5075067;28;20040;-79
2021/09/09 10:33:42;;;;;;;6.03;5.05;;;;;;;47.25;13.34;99709.09;5073676;28;20072;-79
2021/09/09 10:36:38;;;;;;;5.97;5.38;;;;;;;46.60;13.57;99703.53;5076277;28;20045;-81
2021/09/09 10:39:06;;;;;;;5.97;5.47;;;;;;;47.18;13.29;99695.91;5072302;28;20048;-82
2021/09/09 10:41:35;;;;;;;5.78;5.30;;;;;;;47.83;12.91;99697.50;5086744;28;20067;-81
2021/09/09 10:44:04;;;;;;;5.88;5.38;;;;;;;46.45;13.67;99686.66;5083565;28;20048;-81
2021/09/09 10:46:38;;;;;;;5.88;5.40;;;;;;;46.56;13.48;99691.41;5075475;28;20048;-80
2021/09/09 10:49:17;;;;;;;5.88;5.10;;;;;;;47.88;13.48;99683.91;5068640;28;20071;-80
2021/09/09 10:52:07;;;;;;;6.00;5.18;;;;;;;47.91;13.39;99683.53;5078071;28;20056;-80
2021/09/09 10:55:06;;;;;;;7.75;5.35;;;;;;;49.23;12.26;99678.25;5066297;28;20053;-80
2021/09/09 10:57:35;;;;;;;5.60;5.10;;;;;;;49.55;12.27;99683.22;5068655;28;20044;-80
2021/09/09 11:00:05;;;;;;;5.82;5.15;;;;;;;50.06;11.43;99683.78;5070009;28;20067;-80
2021/09/09 11:02:45;;;;;;;5.43;4.97;;;;;;;50.20;12.03;99680.44;5055028;28;20048;-79
2021/09/09 11:05:14;;;;;;;6.53;5.10;;;;;;;49.34;12.20;99674.78;5073484;28;20086;-79
2021/09/09 11:07:44;;;;;;;5.63;5.05;;;;;;;49.84;12.53;99684.88;5073672;28;20052;-79
2021/09/09 11:10:12;;;;;;;5.13;4.55;;;;;;;50.51;11.46;99677.81;5068451;28;20053;-80
2021/09/09 11:12:43;;;;;;;5.65;4.72;;;;;;;49.29;11.80;99689.78;5072686;28;20049;-81
2021/09/09 11:15:14;;;;;;;6.55;4.22;;;;;;;49.27;12.00;99674.81;5077082;28;20059;-81
2021/09/09 11:17:42;;;;;;;5.88;5.15;;;;;;;49.35;11.59;99681.47;5084591;28;20508;-81
2021/09/09 11:20:10;;;;;;;;;;;;;;;47.43;13.19;99682.69;5084034;28;20397;-81
2021/09/09 11:22:39;;;;;;;7.20;5.57;;;;;;;46.54;13.43;99685.31;5084773;28;19920;-81
2021/09/09 11:25:18;;;;;;;5.75;4.82;;;;;;;47.56;12.99;99685.44;5083505;28;20127;-80
2021/09/09 11:27:47;;;;;;;7.07;5.43;;;;;;;47.96;12.58;99681.72;5079372;28;20056;-80
2021/09/09 11:30:18;;;;;;;7.22;5.30;;;;;;;46.88;13.43;99681.19;5081831;28;20071;-80
2021/09/09 11:33:06;;;;;;;6.00;5.43;;;;;;;46.12;14.16;99686.38;5081318;28;20097;-80
2021/09/09 11:35:36;;;;;;;6.43;4.78;;;;;;;45.82;15.12;99678.19;5083430;28;20058;-80
2021/09/09 11:38:04;;;;;;;9.23;5.22;;;;;;;44.69;15.65;99680.56;5073713;28;20048;-79